sensor_id;sensor_type;location;lat;lon;timestamp;temperature;humidity
7516;DHT22;3799;47.184;8.538;2023-07-31T00:02:01;17.50;99.90
7516;DHT22;3799;47.184;8.538;2023-07-31T00:04:29;17.10;99.90
7516;DHT22;3799;47.184;8.538;2023-07-31T00:06:56;17.40;99.90
7516;DHT22;3799;47.184;8.538;2023-07-31T00:09:23;17.10;99.90
7516;DHT22;3799;47.184;8.538;2023-07-31T00:11:50;17.00;99.90
7516;DHT22;3799;47.184;8.538;2023-07-31T00:14:17;17.20;99.90
7516;DHT22;3799;47.184;8.538;2023-07-31T00:16:45;17.30;99.90
7516;DHT22;3799;47.184;8.538;2023-07-31T00:19:21;17.10;99.90
7516;DHT22;3799;47.184;8.538;2023-07-31T00:21:49;17.20;99.90
7516;DHT22;3799;47.184;8.538;2023-07-31T00:24:16;17.10;99.90
7516;DHT22;3799;47.184;8.538;2023-07-31T00:26:43;16.80;99.90
7516;DHT22;3799;47.184;8.538;2023-07-31T00:29:11;16.90;99.90
7516;DHT22;3799;47.184;8.538;2023-07-31T00:31:38;16.80;99.90
7516;DHT22;3799;47.184;8.538;2023-07-31T00:34:05;16.90;99.90
7516;DHT22;3799;47.184;8.538;2023-07-31T00:36:32;17.00;99.90
7516;DHT22;3799;47.184;8.538;2023-07-31T00:38:59;16.80;99.90
7516;DHT22;3799;47.184;8.538;2023-07-31T00:41:26;16.80;99.90
7516;DHT22;3799;47.184;8.538;2023-07-31T00:43:56;16.70;99.90
7516;DHT22;3799;47.184;8.538;2023-07-31T00:46:23;17.00;99.90
7516;DHT22;3799;47.184;8.538;2023-07-31T00:48:50;16.80;99.90
7516;DHT22;3799;47.184;8.538;2023-07-31T00:51:18;16.80;99.90
7516;DHT22;3799;47.184;8.538;2023-07-31T00:53:45;16.70;99.90
7516;DHT22;3799;47.184;8.538;2023-07-31T00:56:14;16.90;99.90
7516;DHT22;3799;47.184;8.538;2023-07-31T00:58:55;16.80;99.90
7516;DHT22;3799;47.184;8.538;2023-07-31T01:01:22;16.80;99.90
7516;DHT22;3799;47.184;8.538;2023-07-31T01:03:51;17.10;99.90
7516;DHT22;3799;47.184;8.538;2023-07-31T01:09:24;16.80;99.90
7516;DHT22;3799;47.184;8.538;2023-07-31T01:12:01;16.90;99.90
7516;DHT22;3799;47.184;8.538;2023-07-31T01:14:30;16.80;99.90
7516;DHT22;3799;47.184;8.538;2023-07-31T01:17:00;17.00;99.90
7516;DHT22;3799;47.184;8.538;2023-07-31T01:19:27;16.70;99.90
7516;DHT22;3799;47.184;8.538;2023-07-31T01:27:25;16.80;99.90
7516;DHT22;3799;47.184;8.538;2023-07-31T01:32:40;16.60;99.90
7516;DHT22;3799;47.184;8.538;2023-07-31T01:35:11;16.80;99.90
7516;DHT22;3799;47.184;8.538;2023-07-31T01:37:39;16.60;99.90
7516;DHT22;3799;47.184;8.538;2023-07-31T01:40:07;16.30;99.90
7516;DHT22;3799;47.184;8.538;2023-07-31T01:42:34;16.50;99.90
7516;DHT22;3799;47.184;8.538;2023-07-31T01:45:02;16.50;99.90
7516;DHT22;3799;47.184;8.538;2023-07-31T01:47:29;16.20;99.90
7516;DHT22;3799;47.184;8.538;2023-07-31T01:49:59;16.50;99.90
7516;DHT22;3799;47.184;8.538;2023-07-31T01:52:29;16.20;99.90
7516;DHT22;3799;47.184;8.538;2023-07-31T01:54:57;16.40;99.90
7516;DHT22;3799;47.184;8.538;2023-07-31T01:57:26;16.20;99.90
7516;DHT22;3799;47.184;8.538;2023-07-31T01:59:53;16.30;99.90
7516;DHT22;3799;47.184;8.538;2023-07-31T02:02:21;16.10;99.90
7516;DHT22;3799;47.184;8.538;2023-07-31T02:04:52;16.20;99.90
7516;DHT22;3799;47.184;8.538;2023-07-31T02:07:19;15.90;99.90
7516;DHT22;3799;47.184;8.538;2023-07-31T02:09:52;15.90;99.90
7516;DHT22;3799;47.184;8.538;2023-07-31T02:12:19;15.80;99.90
7516;DHT22;3799;47.184;8.538;2023-07-31T02:14:46;15.90;99.90
7516;DHT22;3799;47.184;8.538;2023-07-31T02:17:13;15.80;99.90
7516;DHT22;3799;47.184;8.538;2023-07-31T02:19:43;15.60;99.90
7516;DHT22;3799;47.184;8.538;2023-07-31T02:22:10;15.60;99.90
7516;DHT22;3799;47.184;8.538;2023-07-31T02:24:38;15.80;99.90
7516;DHT22;3799;47.184;8.538;2023-07-31T02:27:05;15.70;99.90
7516;DHT22;3799;47.184;8.538;2023-07-31T02:29:32;15.80;99.90
7516;DHT22;3799;47.184;8.538;2023-07-31T02:31:59;15.80;99.90
7516;DHT22;3799;47.184;8.538;2023-07-31T02:34:29;15.80;99.90
7516;DHT22;3799;47.184;8.538;2023-07-31T02:36:59;15.70;99.90
7516;DHT22;3799;47.184;8.538;2023-07-31T02:39:36;15.60;99.90
7516;DHT22;3799;47.184;8.538;2023-07-31T02:42:04;15.70;99.90
7516;DHT22;3799;47.184;8.538;2023-07-31T02:44:31;15.40;99.90
7516;DHT22;3799;47.184;8.538;2023-07-31T02:46:58;15.80;99.90
7516;DHT22;3799;47.184;8.538;2023-07-31T02:49:25;15.50;99.90
7516;DHT22;3799;47.184;8.538;2023-07-31T02:51:53;15.70;99.90
7516;DHT22;3799;47.184;8.538;2023-07-31T02:54:20;15.50;99.90
7516;DHT22;3799;47.184;8.538;2023-07-31T02:56:48;15.60;99.90
7516;DHT22;3799;47.184;8.538;2023-07-31T02:59:17;15.30;99.90
7516;DHT22;3799;47.184;8.538;2023-07-31T03:01:44;15.30;99.90
7516;DHT22;3799;47.184;8.538;2023-07-31T03:04:12;15.40;99.90
7516;DHT22;3799;47.184;8.538;2023-07-31T03:06:39;15.50;99.90
7516;DHT22;3799;47.184;8.538;2023-07-31T03:09:06;15.50;99.90
7516;DHT22;3799;47.184;8.538;2023-07-31T03:11:33;15.40;99.90
7516;DHT22;3799;47.184;8.538;2023-07-31T03:14:01;15.60;99.90
7516;DHT22;3799;47.184;8.538;2023-07-31T03:16:28;15.40;99.90
7516;DHT22;3799;47.184;8.538;2023-07-31T03:18:55;15.30;99.90
7516;DHT22;3799;47.184;8.538;2023-07-31T03:21:36;15.50;99.90
7516;DHT22;3799;47.184;8.538;2023-07-31T03:24:03;15.30;99.90
7516;DHT22;3799;47.184;8.538;2023-07-31T03:26:33;15.20;99.90
7516;DHT22;3799;47.184;8.538;2023-07-31T03:29:01;15.30;99.90
7516;DHT22;3799;47.184;8.538;2023-07-31T03:31:28;15.30;99.90
7516;DHT22;3799;47.184;8.538;2023-07-31T03:33:55;15.40;99.90
7516;DHT22;3799;47.184;8.538;2023-07-31T03:36:23;15.60;99.90
7516;DHT22;3799;47.184;8.538;2023-07-31T03:38:51;15.60;99.90
7516;DHT22;3799;47.184;8.538;2023-07-31T03:41:18;15.50;99.90
7516;DHT22;3799;47.184;8.538;2023-07-31T03:43:51;15.70;99.90
7516;DHT22;3799;47.184;8.538;2023-07-31T03:46:24;15.60;99.90
7516;DHT22;3799;47.184;8.538;2023-07-31T03:48:52;15.50;99.90
7516;DHT22;3799;47.184;8.538;2023-07-31T03:51:19;15.70;99.90
7516;DHT22;3799;47.184;8.538;2023-07-31T03:53:46;15.50;99.90
7516;DHT22;3799;47.184;8.538;2023-07-31T03:56:13;15.50;99.90
7516;DHT22;3799;47.184;8.538;2023-07-31T03:58:40;15.50;99.90
7516;DHT22;3799;47.184;8.538;2023-07-31T04:01:08;15.50;99.90
7516;DHT22;3799;47.184;8.538;2023-07-31T04:03:35;15.70;99.90
7516;DHT22;3799;47.184;8.538;2023-07-31T04:06:02;15.70;99.90
7516;DHT22;3799;47.184;8.538;2023-07-31T04:08:29;15.70;99.90
7516;DHT22;3799;47.184;8.538;2023-07-31T04:10:56;15.60;99.90
7516;DHT22;3799;47.184;8.538;2023-07-31T04:13:23;15.50;99.90
7516;DHT22;3799;47.184;8.538;2023-07-31T04:15:50;15.60;99.90
7516;DHT22;3799;47.184;8.538;2023-07-31T04:18:20;15.50;99.90
7516;DHT22;3799;47.184;8.538;2023-07-31T04:20:47;15.60;99.90
7516;DHT22;3799;47.184;8.538;2023-07-31T04:23:14;15.60;99.90
7516;DHT22;3799;47.184;8.538;2023-07-31T04:25:42;15.70;99.90
7516;DHT22;3799;47.184;8.538;2023-07-31T04:28:09;15.90;99.90
7516;DHT22;3799;47.184;8.538;2023-07-31T04:30:38;15.70;99.90
7516;DHT22;3799;47.184;8.538;2023-07-31T04:33:06;15.60;99.90
7516;DHT22;3799;47.184;8.538;2023-07-31T04:35:33;15.90;99.90
7516;DHT22;3799;47.184;8.538;2023-07-31T04:38:00;16.00;99.90
7516;DHT22;3799;47.184;8.538;2023-07-31T04:40:27;15.90;99.90
7516;DHT22;3799;47.184;8.538;2023-07-31T04:42:54;16.10;99.90
7516;DHT22;3799;47.184;8.538;2023-07-31T04:45:22;16.20;99.90
7516;DHT22;3799;47.184;8.538;2023-07-31T04:47:49;16.30;99.90
7516;DHT22;3799;47.184;8.538;2023-07-31T04:50:19;16.20;99.90
7516;DHT22;3799;47.184;8.538;2023-07-31T04:52:48;16.30;99.90
7516;DHT22;3799;47.184;8.538;2023-07-31T04:55:16;16.30;99.90
7516;DHT22;3799;47.184;8.538;2023-07-31T04:57:43;16.30;99.90
7516;DHT22;3799;47.184;8.538;2023-07-31T05:00:10;16.50;99.90
7516;DHT22;3799;47.184;8.538;2023-07-31T05:02:38;16.60;99.90
7516;DHT22;3799;47.184;8.538;2023-07-31T05:05:05;16.40;99.90
7516;DHT22;3799;47.184;8.538;2023-07-31T05:07:32;16.70;99.90
7516;DHT22;3799;47.184;8.538;2023-07-31T05:10:07;16.80;99.90
7516;DHT22;3799;47.184;8.538;2023-07-31T05:12:38;16.50;99.90
7516;DHT22;3799;47.184;8.538;2023-07-31T05:15:05;16.60;99.90
7516;DHT22;3799;47.184;8.538;2023-07-31T05:17:33;16.80;99.90
7516;DHT22;3799;47.184;8.538;2023-07-31T05:20:00;17.00;99.90
7516;DHT22;3799;47.184;8.538;2023-07-31T05:22:27;17.20;99.90
7516;DHT22;3799;47.184;8.538;2023-07-31T05:24:54;17.10;99.90
7516;DHT22;3799;47.184;8.538;2023-07-31T05:27:24;17.10;99.90
7516;DHT22;3799;47.184;8.538;2023-07-31T05:29:53;17.30;99.90
7516;DHT22;3799;47.184;8.538;2023-07-31T05:32:22;17.10;99.90
7516;DHT22;3799;47.184;8.538;2023-07-31T05:34:52;17.20;99.90
7516;DHT22;3799;47.184;8.538;2023-07-31T05:37:20;17.40;99.90
7516;DHT22;3799;47.184;8.538;2023-07-31T05:39:47;17.10;99.90
7516;DHT22;3799;47.184;8.538;2023-07-31T05:42:17;17.10;99.90
7516;DHT22;3799;47.184;8.538;2023-07-31T05:44:44;17.20;99.90
7516;DHT22;3799;47.184;8.538;2023-07-31T05:47:11;17.50;99.90
7516;DHT22;3799;47.184;8.538;2023-07-31T05:49:39;17.30;99.90
7516;DHT22;3799;47.184;8.538;2023-07-31T05:52:06;17.10;99.90
7516;DHT22;3799;47.184;8.538;2023-07-31T05:54:39;17.40;99.90
7516;DHT22;3799;47.184;8.538;2023-07-31T05:57:06;17.40;99.90
7516;DHT22;3799;47.184;8.538;2023-07-31T05:59:33;17.40;99.90
7516;DHT22;3799;47.184;8.538;2023-07-31T06:02:00;17.60;99.90
7516;DHT22;3799;47.184;8.538;2023-07-31T06:04:27;17.70;99.90
7516;DHT22;3799;47.184;8.538;2023-07-31T06:06:55;17.40;99.90
7516;DHT22;3799;47.184;8.538;2023-07-31T06:09:22;17.50;99.90
7516;DHT22;3799;47.184;8.538;2023-07-31T06:11:50;17.70;99.90
7516;DHT22;3799;47.184;8.538;2023-07-31T06:14:17;17.80;99.90
7516;DHT22;3799;47.184;8.538;2023-07-31T06:16:44;18.20;99.90
7516;DHT22;3799;47.184;8.538;2023-07-31T06:19:12;17.80;99.90
7516;DHT22;3799;47.184;8.538;2023-07-31T06:21:39;18.00;99.90
7516;DHT22;3799;47.184;8.538;2023-07-31T06:24:09;18.10;99.90
7516;DHT22;3799;47.184;8.538;2023-07-31T06:26:36;18.20;99.90
7516;DHT22;3799;47.184;8.538;2023-07-31T06:29:04;18.30;99.90
7516;DHT22;3799;47.184;8.538;2023-07-31T06:31:31;17.90;99.90
7516;DHT22;3799;47.184;8.538;2023-07-31T06:34:01;17.90;99.90
7516;DHT22;3799;47.184;8.538;2023-07-31T06:36:28;17.90;99.90
7516;DHT22;3799;47.184;8.538;2023-07-31T06:38:55;18.10;99.90
7516;DHT22;3799;47.184;8.538;2023-07-31T06:41:26;18.10;99.90
7516;DHT22;3799;47.184;8.538;2023-07-31T06:43:53;18.30;99.90
7516;DHT22;3799;47.184;8.538;2023-07-31T06:46:20;18.20;99.90
7516;DHT22;3799;47.184;8.538;2023-07-31T06:48:47;18.20;99.90
7516;DHT22;3799;47.184;8.538;2023-07-31T06:51:14;18.50;99.90
7516;DHT22;3799;47.184;8.538;2023-07-31T06:53:41;18.40;99.90
7516;DHT22;3799;47.184;8.538;2023-07-31T06:56:09;18.50;99.90
7516;DHT22;3799;47.184;8.538;2023-07-31T06:58:37;18.80;99.90
7516;DHT22;3799;47.184;8.538;2023-07-31T07:01:06;18.80;99.90
7516;DHT22;3799;47.184;8.538;2023-07-31T07:03:33;18.90;99.90
7516;DHT22;3799;47.184;8.538;2023-07-31T07:06:00;18.60;99.90
7516;DHT22;3799;47.184;8.538;2023-07-31T07:08:28;18.70;99.90
7516;DHT22;3799;47.184;8.538;2023-07-31T07:10:55;19.10;99.90
7516;DHT22;3799;47.184;8.538;2023-07-31T07:13:22;19.00;99.90
7516;DHT22;3799;47.184;8.538;2023-07-31T07:15:50;19.00;99.90
7516;DHT22;3799;47.184;8.538;2023-07-31T07:18:18;19.40;99.90
7516;DHT22;3799;47.184;8.538;2023-07-31T07:20:50;19.40;99.90
7516;DHT22;3799;47.184;8.538;2023-07-31T07:23:18;19.40;99.90
7516;DHT22;3799;47.184;8.538;2023-07-31T07:25:47;19.70;99.90
7516;DHT22;3799;47.184;8.538;2023-07-31T07:28:14;19.50;99.90
7516;DHT22;3799;47.184;8.538;2023-07-31T07:30:42;19.70;99.90
7516;DHT22;3799;47.184;8.538;2023-07-31T07:33:09;19.50;99.90
7516;DHT22;3799;47.184;8.538;2023-07-31T07:35:37;19.70;99.90
7516;DHT22;3799;47.184;8.538;2023-07-31T07:38:04;19.60;99.90
7516;DHT22;3799;47.184;8.538;2023-07-31T07:40:31;19.80;99.90
7516;DHT22;3799;47.184;8.538;2023-07-31T07:43:09;19.80;99.90
7516;DHT22;3799;47.184;8.538;2023-07-31T07:45:36;19.80;99.90
7516;DHT22;3799;47.184;8.538;2023-07-31T07:48:03;19.80;99.90
7516;DHT22;3799;47.184;8.538;2023-07-31T07:50:30;19.60;99.90
7516;DHT22;3799;47.184;8.538;2023-07-31T07:52:58;19.70;99.90
7516;DHT22;3799;47.184;8.538;2023-07-31T07:55:25;19.60;99.90
7516;DHT22;3799;47.184;8.538;2023-07-31T07:57:52;19.60;99.90
7516;DHT22;3799;47.184;8.538;2023-07-31T08:00:23;19.80;99.90
7516;DHT22;3799;47.184;8.538;2023-07-31T08:02:50;19.70;99.90
7516;DHT22;3799;47.184;8.538;2023-07-31T08:05:17;20.10;99.90
7516;DHT22;3799;47.184;8.538;2023-07-31T08:07:44;20.20;99.90
7516;DHT22;3799;47.184;8.538;2023-07-31T08:10:12;20.10;99.90
7516;DHT22;3799;47.184;8.538;2023-07-31T08:12:39;20.20;99.90
7516;DHT22;3799;47.184;8.538;2023-07-31T08:15:07;20.30;99.90
7516;DHT22;3799;47.184;8.538;2023-07-31T08:17:34;20.30;99.90
7516;DHT22;3799;47.184;8.538;2023-07-31T08:20:02;20.70;99.90
7516;DHT22;3799;47.184;8.538;2023-07-31T08:22:29;20.80;99.90
7516;DHT22;3799;47.184;8.538;2023-07-31T08:24:56;20.80;99.10
7516;DHT22;3799;47.184;8.538;2023-07-31T08:27:24;20.90;96.60
7516;DHT22;3799;47.184;8.538;2023-07-31T08:29:52;21.00;96.30
7516;DHT22;3799;47.184;8.538;2023-07-31T08:32:35;21.00;95.20
7516;DHT22;3799;47.184;8.538;2023-07-31T08:35:07;21.10;95.90
7516;DHT22;3799;47.184;8.538;2023-07-31T08:37:35;21.30;97.10
7516;DHT22;3799;47.184;8.538;2023-07-31T08:40:04;21.50;93.00
7516;DHT22;3799;47.184;8.538;2023-07-31T08:42:32;21.60;91.60
7516;DHT22;3799;47.184;8.538;2023-07-31T08:44:59;21.90;91.70
7516;DHT22;3799;47.184;8.538;2023-07-31T08:47:29;22.00;90.50
7516;DHT22;3799;47.184;8.538;2023-07-31T08:49:57;22.20;82.60
7516;DHT22;3799;47.184;8.538;2023-07-31T08:52:32;22.20;83.00
7516;DHT22;3799;47.184;8.538;2023-07-31T08:55:05;22.20;81.90
7516;DHT22;3799;47.184;8.538;2023-07-31T08:57:35;22.20;80.40
7516;DHT22;3799;47.184;8.538;2023-07-31T09:00:11;22.10;78.50
7516;DHT22;3799;47.184;8.538;2023-07-31T09:02:48;21.90;77.10
7516;DHT22;3799;47.184;8.538;2023-07-31T09:05:19;21.90;80.60
7516;DHT22;3799;47.184;8.538;2023-07-31T09:07:50;21.90;78.90
7516;DHT22;3799;47.184;8.538;2023-07-31T09:10:19;21.90;78.00
7516;DHT22;3799;47.184;8.538;2023-07-31T09:12:49;21.90;78.90
7516;DHT22;3799;47.184;8.538;2023-07-31T09:15:20;22.00;80.00
7516;DHT22;3799;47.184;8.538;2023-07-31T09:18:05;22.00;78.40
7516;DHT22;3799;47.184;8.538;2023-07-31T09:20:33;22.20;76.90
7516;DHT22;3799;47.184;8.538;2023-07-31T09:23:07;22.30;78.40
7516;DHT22;3799;47.184;8.538;2023-07-31T09:25:35;22.40;74.10
7516;DHT22;3799;47.184;8.538;2023-07-31T09:28:07;22.70;74.50
7516;DHT22;3799;47.184;8.538;2023-07-31T09:30:47;22.90;74.20
7516;DHT22;3799;47.184;8.538;2023-07-31T09:33:15;23.00;70.30
7516;DHT22;3799;47.184;8.538;2023-07-31T09:35:46;23.00;71.20
7516;DHT22;3799;47.184;8.538;2023-07-31T09:38:21;22.90;70.50
7516;DHT22;3799;47.184;8.538;2023-07-31T09:40:49;22.80;69.30
7516;DHT22;3799;47.184;8.538;2023-07-31T09:43:20;22.80;68.90
7516;DHT22;3799;47.184;8.538;2023-07-31T09:45:48;22.80;70.30
7516;DHT22;3799;47.184;8.538;2023-07-31T09:48:18;22.90;71.00
7516;DHT22;3799;47.184;8.538;2023-07-31T09:50:51;23.00;66.70
7516;DHT22;3799;47.184;8.538;2023-07-31T09:53:19;23.10;68.30
7516;DHT22;3799;47.184;8.538;2023-07-31T09:55:46;23.20;68.50
7516;DHT22;3799;47.184;8.538;2023-07-31T09:58:13;23.20;68.80
7516;DHT22;3799;47.184;8.538;2023-07-31T10:00:40;23.30;68.50
7516;DHT22;3799;47.184;8.538;2023-07-31T10:03:09;23.30;67.80
7516;DHT22;3799;47.184;8.538;2023-07-31T10:05:46;23.40;67.20
7516;DHT22;3799;47.184;8.538;2023-07-31T10:08:16;23.40;66.50
7516;DHT22;3799;47.184;8.538;2023-07-31T10:10:54;23.40;65.00
7516;DHT22;3799;47.184;8.538;2023-07-31T10:13:26;23.40;68.20
7516;DHT22;3799;47.184;8.538;2023-07-31T10:15:58;23.40;72.70
7516;DHT22;3799;47.184;8.538;2023-07-31T10:18:29;23.40;72.30
7516;DHT22;3799;47.184;8.538;2023-07-31T10:21:07;23.50;70.90
7516;DHT22;3799;47.184;8.538;2023-07-31T10:23:35;23.60;70.00
7516;DHT22;3799;47.184;8.538;2023-07-31T10:26:05;23.60;68.50
7516;DHT22;3799;47.184;8.538;2023-07-31T10:28:36;23.80;66.60
7516;DHT22;3799;47.184;8.538;2023-07-31T10:31:06;24.00;67.90
7516;DHT22;3799;47.184;8.538;2023-07-31T10:33:34;24.00;65.60
7516;DHT22;3799;47.184;8.538;2023-07-31T10:36:19;24.00;65.40
7516;DHT22;3799;47.184;8.538;2023-07-31T10:38:50;24.10;65.90
7516;DHT22;3799;47.184;8.538;2023-07-31T10:41:31;24.30;66.30
7516;DHT22;3799;47.184;8.538;2023-07-31T10:44:00;24.50;65.60
7516;DHT22;3799;47.184;8.538;2023-07-31T10:46:28;24.60;62.70
7516;DHT22;3799;47.184;8.538;2023-07-31T10:49:01;24.70;63.30
7516;DHT22;3799;47.184;8.538;2023-07-31T10:51:34;24.80;61.10
7516;DHT22;3799;47.184;8.538;2023-07-31T10:54:11;24.90;62.70
7516;DHT22;3799;47.184;8.538;2023-07-31T10:56:39;25.10;62.40
7516;DHT22;3799;47.184;8.538;2023-07-31T10:59:13;25.10;60.10
7516;DHT22;3799;47.184;8.538;2023-07-31T11:01:55;25.20;60.00
7516;DHT22;3799;47.184;8.538;2023-07-31T11:04:25;25.40;59.60
7516;DHT22;3799;47.184;8.538;2023-07-31T11:06:58;25.60;59.20
7516;DHT22;3799;47.184;8.538;2023-07-31T11:09:32;25.80;57.90
7516;DHT22;3799;47.184;8.538;2023-07-31T11:12:03;25.90;58.30
7516;DHT22;3799;47.184;8.538;2023-07-31T11:14:31;26.00;57.90
7516;DHT22;3799;47.184;8.538;2023-07-31T11:16:58;26.10;57.90
7516;DHT22;3799;47.184;8.538;2023-07-31T11:19:28;26.10;57.40
7516;DHT22;3799;47.184;8.538;2023-07-31T11:22:01;26.10;56.70
7516;DHT22;3799;47.184;8.538;2023-07-31T11:24:34;26.20;56.90
7516;DHT22;3799;47.184;8.538;2023-07-31T11:27:07;26.20;56.70
7516;DHT22;3799;47.184;8.538;2023-07-31T11:29:35;26.20;56.60
7516;DHT22;3799;47.184;8.538;2023-07-31T11:32:02;26.30;55.90
7516;DHT22;3799;47.184;8.538;2023-07-31T11:34:29;26.30;55.70
7516;DHT22;3799;47.184;8.538;2023-07-31T11:36:57;26.40;55.70
7516;DHT22;3799;47.184;8.538;2023-07-31T11:39:24;26.40;55.10
7516;DHT22;3799;47.184;8.538;2023-07-31T11:41:51;26.40;54.90
7516;DHT22;3799;47.184;8.538;2023-07-31T11:44:18;26.40;54.90
7516;DHT22;3799;47.184;8.538;2023-07-31T11:46:56;26.60;54.60
7516;DHT22;3799;47.184;8.538;2023-07-31T11:49:24;26.80;54.30
7516;DHT22;3799;47.184;8.538;2023-07-31T11:51:52;26.90;54.70
7516;DHT22;3799;47.184;8.538;2023-07-31T11:54:20;27.20;55.00
7516;DHT22;3799;47.184;8.538;2023-07-31T11:56:49;27.30;53.60
7516;DHT22;3799;47.184;8.538;2023-07-31T11:59:17;27.30;53.00
7516;DHT22;3799;47.184;8.538;2023-07-31T12:01:45;27.30;53.00
7516;DHT22;3799;47.184;8.538;2023-07-31T12:04:13;27.40;53.40
7516;DHT22;3799;47.184;8.538;2023-07-31T12:06:40;27.60;53.10
7516;DHT22;3799;47.184;8.538;2023-07-31T12:09:08;27.80;52.50
7516;DHT22;3799;47.184;8.538;2023-07-31T12:11:45;27.80;52.30
7516;DHT22;3799;47.184;8.538;2023-07-31T12:14:24;27.90;51.90
7516;DHT22;3799;47.184;8.538;2023-07-31T12:16:56;28.00;51.70
7516;DHT22;3799;47.184;8.538;2023-07-31T12:19:25;28.10;51.90
7516;DHT22;3799;47.184;8.538;2023-07-31T12:21:58;28.20;51.50
7516;DHT22;3799;47.184;8.538;2023-07-31T12:24:27;28.20;51.30
7516;DHT22;3799;47.184;8.538;2023-07-31T12:26:55;28.30;51.40
7516;DHT22;3799;47.184;8.538;2023-07-31T12:29:23;28.40;51.40
7516;DHT22;3799;47.184;8.538;2023-07-31T12:31:51;28.50;50.90
7516;DHT22;3799;47.184;8.538;2023-07-31T12:34:20;28.60;50.80
7516;DHT22;3799;47.184;8.538;2023-07-31T12:36:53;28.80;50.30
7516;DHT22;3799;47.184;8.538;2023-07-31T12:39:21;28.90;49.40
7516;DHT22;3799;47.184;8.538;2023-07-31T12:41:48;29.00;49.60
7516;DHT22;3799;47.184;8.538;2023-07-31T12:44:16;29.20;49.50
7516;DHT22;3799;47.184;8.538;2023-07-31T12:46:43;29.40;49.40
7516;DHT22;3799;47.184;8.538;2023-07-31T12:49:10;29.70;49.50
7516;DHT22;3799;47.184;8.538;2023-07-31T12:51:38;30.10;48.80
7516;DHT22;3799;47.184;8.538;2023-07-31T12:54:05;30.20;48.20
7516;DHT22;3799;47.184;8.538;2023-07-31T12:56:33;30.10;48.20
7516;DHT22;3799;47.184;8.538;2023-07-31T12:59:00;29.90;48.70
7516;DHT22;3799;47.184;8.538;2023-07-31T13:01:30;29.60;48.90
7516;DHT22;3799;47.184;8.538;2023-07-31T13:03:59;29.10;49.20
7516;DHT22;3799;47.184;8.538;2023-07-31T13:06:26;28.90;49.80
7516;DHT22;3799;47.184;8.538;2023-07-31T13:08:56;28.70;49.60
7516;DHT22;3799;47.184;8.538;2023-07-31T13:11:23;28.50;50.40
7516;DHT22;3799;47.184;8.538;2023-07-31T13:13:50;28.30;52.10
7516;DHT22;3799;47.184;8.538;2023-07-31T13:16:18;27.90;52.00
7516;DHT22;3799;47.184;8.538;2023-07-31T13:18:45;27.70;51.30
7516;DHT22;3799;47.184;8.538;2023-07-31T13:21:12;27.40;50.70
7516;DHT22;3799;47.184;8.538;2023-07-31T13:23:40;27.20;50.40
7516;DHT22;3799;47.184;8.538;2023-07-31T13:26:07;27.10;50.20
7516;DHT22;3799;47.184;8.538;2023-07-31T13:28:34;27.10;50.60
7516;DHT22;3799;47.184;8.538;2023-07-31T13:31:02;27.20;50.70
7516;DHT22;3799;47.184;8.538;2023-07-31T13:33:29;27.20;51.10
7516;DHT22;3799;47.184;8.538;2023-07-31T13:36:03;27.20;51.00
7516;DHT22;3799;47.184;8.538;2023-07-31T13:38:34;27.30;51.20
7516;DHT22;3799;47.184;8.538;2023-07-31T13:41:01;27.40;51.30
7516;DHT22;3799;47.184;8.538;2023-07-31T13:43:36;27.50;51.00
7516;DHT22;3799;47.184;8.538;2023-07-31T13:46:03;27.50;50.50
7516;DHT22;3799;47.184;8.538;2023-07-31T13:48:36;27.60;50.30
7516;DHT22;3799;47.184;8.538;2023-07-31T13:51:09;27.60;50.70
7516;DHT22;3799;47.184;8.538;2023-07-31T13:54:08;27.70;50.90
7516;DHT22;3799;47.184;8.538;2023-07-31T13:56:36;27.90;50.30
7516;DHT22;3799;47.184;8.538;2023-07-31T13:59:04;28.10;49.90
7516;DHT22;3799;47.184;8.538;2023-07-31T14:01:31;28.50;49.40
7516;DHT22;3799;47.184;8.538;2023-07-31T14:03:59;29.00;48.40
7516;DHT22;3799;47.184;8.538;2023-07-31T14:06:26;29.40;48.00
7516;DHT22;3799;47.184;8.538;2023-07-31T14:08:54;29.60;47.00
7516;DHT22;3799;47.184;8.538;2023-07-31T14:11:22;29.70;46.80
7516;DHT22;3799;47.184;8.538;2023-07-31T14:13:50;29.60;46.10
7516;DHT22;3799;47.184;8.538;2023-07-31T14:16:17;29.40;46.70
7516;DHT22;3799;47.184;8.538;2023-07-31T14:18:45;29.40;46.90
7516;DHT22;3799;47.184;8.538;2023-07-31T14:21:15;29.40;46.40
7516;DHT22;3799;47.184;8.538;2023-07-31T14:23:42;29.30;45.90
7516;DHT22;3799;47.184;8.538;2023-07-31T14:26:10;29.20;45.90
7516;DHT22;3799;47.184;8.538;2023-07-31T14:28:37;29.20;45.90
7516;DHT22;3799;47.184;8.538;2023-07-31T14:31:05;29.20;45.70
7516;DHT22;3799;47.184;8.538;2023-07-31T14:33:33;29.20;45.60
7516;DHT22;3799;47.184;8.538;2023-07-31T14:36:03;29.40;45.70
7516;DHT22;3799;47.184;8.538;2023-07-31T14:38:33;29.40;44.80
7516;DHT22;3799;47.184;8.538;2023-07-31T14:41:05;29.50;44.80
7516;DHT22;3799;47.184;8.538;2023-07-31T14:43:32;29.60;44.90
7516;DHT22;3799;47.184;8.538;2023-07-31T14:46:00;29.80;44.40
7516;DHT22;3799;47.184;8.538;2023-07-31T14:48:27;29.80;44.10
7516;DHT22;3799;47.184;8.538;2023-07-31T14:50:56;30.10;44.30
7516;DHT22;3799;47.184;8.538;2023-07-31T14:53:23;30.20;44.60
7516;DHT22;3799;47.184;8.538;2023-07-31T14:55:50;30.40;43.90
7516;DHT22;3799;47.184;8.538;2023-07-31T14:58:18;30.30;43.60
7516;DHT22;3799;47.184;8.538;2023-07-31T15:00:45;30.20;43.20
7516;DHT22;3799;47.184;8.538;2023-07-31T15:03:13;30.20;43.70
7516;DHT22;3799;47.184;8.538;2023-07-31T15:05:40;30.10;43.30
7516;DHT22;3799;47.184;8.538;2023-07-31T15:08:07;30.10;43.10
7516;DHT22;3799;47.184;8.538;2023-07-31T15:10:35;30.20;43.70
7516;DHT22;3799;47.184;8.538;2023-07-31T15:13:02;30.20;42.00
7516;DHT22;3799;47.184;8.538;2023-07-31T15:15:29;30.10;42.30
7516;DHT22;3799;47.184;8.538;2023-07-31T15:17:56;30.30;42.80
7516;DHT22;3799;47.184;8.538;2023-07-31T15:20:23;30.40;42.10
7516;DHT22;3799;47.184;8.538;2023-07-31T15:22:51;30.70;41.50
7516;DHT22;3799;47.184;8.538;2023-07-31T15:25:18;30.70;40.70
7516;DHT22;3799;47.184;8.538;2023-07-31T15:27:45;30.80;41.20
7516;DHT22;3799;47.184;8.538;2023-07-31T15:30:13;31.00;41.20
7516;DHT22;3799;47.184;8.538;2023-07-31T15:32:52;31.10;41.20
7516;DHT22;3799;47.184;8.538;2023-07-31T15:35:20;31.10;40.50
7516;DHT22;3799;47.184;8.538;2023-07-31T15:37:51;31.20;40.50
7516;DHT22;3799;47.184;8.538;2023-07-31T15:40:18;31.50;41.00
7516;DHT22;3799;47.184;8.538;2023-07-31T15:42:45;31.70;40.70
7516;DHT22;3799;47.184;8.538;2023-07-31T15:45:12;31.80;40.10
7516;DHT22;3799;47.184;8.538;2023-07-31T15:47:39;31.80;39.60
7516;DHT22;3799;47.184;8.538;2023-07-31T15:50:07;31.90;40.00
7516;DHT22;3799;47.184;8.538;2023-07-31T15:52:34;32.00;39.70
7516;DHT22;3799;47.184;8.538;2023-07-31T15:55:02;31.90;38.80
7516;DHT22;3799;47.184;8.538;2023-07-31T15:57:29;31.70;39.20
7516;DHT22;3799;47.184;8.538;2023-07-31T15:59:59;31.70;39.70
7516;DHT22;3799;47.184;8.538;2023-07-31T16:02:26;31.40;39.10
7516;DHT22;3799;47.184;8.538;2023-07-31T16:04:53;31.30;39.30
7516;DHT22;3799;47.184;8.538;2023-07-31T16:07:20;31.30;39.70
7516;DHT22;3799;47.184;8.538;2023-07-31T16:09:50;31.20;39.90
7516;DHT22;3799;47.184;8.538;2023-07-31T16:12:17;31.00;40.10
7516;DHT22;3799;47.184;8.538;2023-07-31T16:14:44;30.80;40.20
7516;DHT22;3799;47.184;8.538;2023-07-31T16:17:12;30.40;41.40
7516;DHT22;3799;47.184;8.538;2023-07-31T16:19:39;30.10;42.40
7516;DHT22;3799;47.184;8.538;2023-07-31T16:22:07;29.90;41.80
7516;DHT22;3799;47.184;8.538;2023-07-31T16:24:34;29.60;40.70